Time;durP1;ratioP1;P1;durP2;ratioP2;P2;SDS_P1;SDS_P2;PMS_P1;PMS_P2;Temp;Humidity;BMP_temperature;BMP_pressure;BME280_temperature;BME280_humidity;BME280_pressure;Samples;Min_cycle;Max_cycle;Signal;HPM_P1;HPM_P2
2022/08/30 00:01:23;;;;;;;6.72;4.47;;;;;;;26.97;63.75;100971.06;4992997;28;20042;-80
2022/08/30 00:03:53;;;;;;;5.95;4.60;;;;;;;26.79;64.02;100970.84;4992832;28;20062;-80
2022/08/30 00:06:23;;;;;;;6.53;4.95;;;;;;;26.93;64.10;100964.63;4992990;28;20057;-79
2022/08/30 00:08:52;;;;;;;7.30;4.85;;;;;;;26.77;64.29;100961.97;4992809;28;20050;-80
2022/08/30 00:11:23;;;;;;;6.28;4.60;;;;;;;26.77;64.36;100957.19;4992937;28;20039;-80
2022/08/30 00:13:52;;;;;;;8.43;4.70;;;;;;;26.85;64.46;100963.69;4992594;28;20058;-80
2022/08/30 00:16:22;;;;;;;7.10;5.10;;;;;;;26.83;64.30;100955.66;4994111;28;20046;-79
2022/08/30 00:18:50;;;;;;;6.85;4.93;;;;;;;26.80;64.66;100950.00;4992348;28;20050;-80
2022/08/30 00:21:18;;;;;;;8.43;5.18;;;;;;;26.92;63.74;100946.97;4992449;28;20401;-80
2022/08/30 00:23:46;;;;;;;7.35;4.60;;;;;;;26.97;64.04;100940.19;4985865;28;20050;-80
2022/08/30 00:26:14;;;;;;;9.18;5.65;;;;;;;27.03;64.94;100946.28;4996469;28;20039;-79
2022/08/30 00:28:42;;;;;;;6.55;4.57;;;;;;;27.04;64.62;100943.09;5012218;28;20054;-79
2022/08/30 00:31:10;;;;;;;6.28;4.65;;;;;;;27.03;63.71;100947.06;5011769;28;20068;-80
2022/08/30 00:33:41;;;;;;;6.95;5.00;;;;;;;27.10;63.77;100935.09;5011777;28;20053;-80
2022/08/30 00:36:12;;;;;;;7.05;4.68;;;;;;;27.05;63.87;100933.47;5012106;28;20057;-80
2022/08/30 00:38:40;;;;;;;6.70;5.65;;;;;;;26.96;64.34;100930.16;5011736;28;20054;-79
2022/08/30 00:41:08;;;;;;;6.68;5.35;;;;;;;27.10;64.70;100935.94;4995408;28;20058;-79
2022/08/30 00:43:36;;;;;;;7.93;5.75;;;;;;;26.94;64.46;100926.94;4992349;28;20053;-80
2022/08/30 00:46:07;;;;;;;7.45;5.20;;;;;;;26.97;64.79;100934.56;4988588;28;20059;-80
2022/08/30 00:48:39;;;;;;;9.00;5.28;;;;;;;26.97;64.48;100937.38;4991970;28;20527;-80
2022/08/30 00:51:10;;;;;;;7.10;5.43;;;;;;;26.53;65.97;100941.66;4993173;28;20042;-78
2022/08/30 00:53:41;;;;;;;10.48;5.90;;;;;;;26.67;65.31;100935.41;4992276;28;20054;-79
2022/08/30 00:56:10;;;;;;;6.40;5.35;;;;;;;26.70;65.41;100921.41;4991980;28;20054;-79
2022/08/30 00:58:46;;;;;;;7.55;5.25;;;;;;;26.84;65.30;100923.56;4992514;28;20046;-79
2022/08/30 01:01:14;;;;;;;6.68;5.35;;;;;;;26.78;64.91;100911.06;4991702;28;20054;-79
2022/08/30 01:03:42;;;;;;;7.80;5.28;;;;;;;26.70;65.13;100923.44;4992147;28;20054;-79
2022/08/30 01:06:14;;;;;;;5.68;5.13;;;;;;;26.64;65.75;100908.91;4992480;28;20370;-79
2022/08/30 01:08:46;;;;;;;7.10;5.60;;;;;;;26.60;64.99;100912.88;4992347;28;20135;-79
2022/08/30 01:11:19;;;;;;;8.93;5.75;;;;;;;26.71;65.16;100913.81;4992404;28;20065;-79
2022/08/30 01:13:49;;;;;;;6.05;5.25;;;;;;;26.79;65.30;100915.50;4991771;28;20065;-79
2022/08/30 01:16:18;;;;;;;8.43;5.70;;;;;;;26.84;64.27;100929.19;4991733;28;20062;-79
2022/08/30 01:18:49;;;;;;;6.97;5.47;;;;;;;26.84;65.03;100929.19;4992045;28;20042;-80
2022/08/30 01:21:29;;;;;;;7.32;5.57;;;;;;;26.84;64.88;100929.19;4990188;28;20077;-79
2022/08/30 01:23:59;;;;;;;7.15;5.60;;;;;;;26.94;64.24;100927.72;4992049;28;20049;-79
2022/08/30 01:26:29;;;;;;;9.68;7.07;;;;;;;26.90;64.92;100929.66;4992345;28;20058;-79
2022/08/30 01:29:03;;;;;;;9.10;5.85;;;;;;;27.03;64.72;100943.47;4991464;28;20054;-79
2022/08/30 01:31:35;;;;;;;12.10;6.35;;;;;;;27.03;64.44;100946.28;4991704;28;20062;-79
2022/08/30 01:34:06;;;;;;;8.65;5.18;;;;;;;26.94;66.15;100946.59;4995196;28;20409;-80
2022/08/30 01:36:36;;;;;;;6.18;5.25;;;;;;;26.92;66.02;100946.13;4995182;28;20505;-80
2022/08/30 01:39:14;;;;;;;6.63;5.63;;;;;;;27.00;66.31;100936.63;4994783;28;20058;-80
2022/08/30 01:41:42;;;;;;;9.48;5.88;;;;;;;26.94;66.48;100943.78;4987006;28;20203;-80
2022/08/30 01:44:11;;;;;;;7.15;5.97;;;;;;;26.87;67.02;100936.03;4989985;28;20066;-80
2022/08/30 01:46:44;;;;;;;8.00;5.80;;;;;;;26.88;67.62;100939.66;5013922;28;20053;-80
2022/08/30 01:49:15;;;;;;;7.20;5.50;;;;;;;26.79;67.68;100943.56;5014115;28;20053;-80
2022/08/30 01:51:45;;;;;;;7.93;5.83;;;;;;;26.75;67.51;100942.75;5014502;28;20049;-80
2022/08/30 01:54:13;;;;;;;6.97;5.32;;;;;;;26.72;66.98;100943.50;5015611;28;20300;-80
2022/08/30 01:56:41;;;;;;;5.78;4.93;;;;;;;26.79;66.82;100948.38;5014328;28;20050;-80
2022/08/30 01:59:09;;;;;;;7.35;5.05;;;;;;;26.76;67.34;100947.16;5012875;28;20066;-80
2022/08/30 02:01:38;;;;;;;9.05;5.03;;;;;;;26.82;66.97;100948.44;5014768;28;20045;-80
2022/08/30 02:04:08;;;;;;;6.75;5.10;;;;;;;26.83;66.62;100938.81;5014338;28;20057;-80
2022/08/30 02:06:38;;;;;;;6.35;4.43;;;;;;;26.69;67.41;100945.06;5014621;28;20046;-80
2022/08/30 02:09:06;;;;;;;7.07;4.90;;;;;;;26.70;67.52;100923.44;5012469;28;20057;-80
2022/08/30 02:11:34;;;;;;;7.45;5.15;;;;;;;26.69;67.68;100928.22;5014675;28;20053;-80
2022/08/30 02:14:02;;;;;;;6.72;5.10;;;;;;;26.66;67.25;100922.56;5013896;28;20042;-80
2022/08/30 02:16:31;;;;;;;8.65;5.47;;;;;;;26.80;67.39;100917.13;5014029;28;20042;-79
2022/08/30 02:18:58;;;;;;;5.53;4.95;;;;;;;26.73;66.87;100928.25;5014393;28;20061;-80
2022/08/30 02:21:30;;;;;;;6.25;5.28;;;;;;;26.70;67.25;100959.91;5013712;28;20053;-80
2022/08/30 02:23:58;;;;;;;6.70;5.90;;;;;;;26.80;67.23;100978.91;5014566;28;20066;-80
2022/08/30 02:26:26;;;;;;;6.60;5.70;;;;;;;26.86;67.73;100998.19;5004356;28;20045;-79
2022/08/30 02:28:54;;;;;;;7.47;6.25;;;;;;;26.85;68.05;100994.59;5014444;28;20037;-79
2022/08/30 02:31:25;;;;;;;8.50;6.10;;;;;;;26.86;68.67;100981.34;5014571;28;20042;-79
2022/08/30 02:33:53;;;;;;;6.85;5.03;;;;;;;26.77;68.43;100968.41;5014210;28;20054;-79
2022/08/30 02:36:22;;;;;;;7.95;5.60;;;;;;;26.73;68.56;100966.75;5014274;28;20053;-79
2022/08/30 02:38:50;;;;;;;6.68;5.35;;;;;;;26.67;69.22;100981.13;5013843;28;20041;-79
2022/08/30 02:41:19;;;;;;;8.10;5.70;;;;;;;26.70;69.36;100988.78;4996203;28;20046;-79
2022/08/30 02:43:47;;;;;;;8.52;6.00;;;;;;;26.72;69.57;100993.22;4993266;28;20066;-79
2022/08/30 02:46:16;;;;;;;7.13;5.68;;;;;;;26.63;71.10;100985.88;4994859;28;20039;-79
2022/08/30 02:48:44;;;;;;;10.30;6.05;;;;;;;26.49;71.35;100968.88;4997480;28;20401;-79
2022/08/30 02:51:13;;;;;;;5.90;4.95;;;;;;;26.29;69.78;100966.19;5004099;28;20429;-77
2022/08/30 02:53:42;;;;;;;5.82;4.60;;;;;;;26.27;68.67;100974.19;4998441;28;20042;-77
2022/08/30 02:56:12;;;;;;;4.53;4.03;;;;;;;26.16;67.18;100996.44;4987226;28;20050;-78
2022/08/30 02:58:41;;;;;;;4.75;3.97;;;;;;;26.13;66.65;100991.59;4993417;28;20046;-80
2022/08/30 03:01:12;;;;;;;3.60;2.70;;;;;;;25.71;65.47;100979.31;4993945;28;20058;-77
2022/08/30 03:03:42;;;;;;;2.58;2.38;;;;;;;25.67;64.90;100975.66;4993801;28;20046;-78
2022/08/30 03:06:11;;;;;;;2.50;2.30;;;;;;;25.71;64.09;100976.53;4993612;28;20058;-78
2022/08/30 03:08:39;;;;;;;4.47;2.53;;;;;;;25.65;63.61;100964.00;4993813;28;20042;-78
2022/08/30 03:11:07;;;;;;;3.92;2.38;;;;;;;25.56;63.56;100945.44;4993428;28;20061;-78
2022/08/30 03:13:35;;;;;;;2.95;2.63;;;;;;;25.67;64.02;100947.63;4993822;28;20046;-77
2022/08/30 03:16:03;;;;;;;2.55;2.35;;;;;;;25.71;63.24;100943.69;4994015;28;20066;-77
2022/08/30 03:18:32;;;;;;;5.38;2.30;;;;;;;25.70;64.33;100944.09;4993549;28;20046;-77
2022/08/30 03:21:00;;;;;;;6.25;2.53;;;;;;;25.56;64.40;100944.66;4993215;28;20509;-77
2022/08/30 03:23:28;;;;;;;3.42;2.75;;;;;;;25.59;64.60;100947.50;4993536;28;20054;-77
2022/08/30 03:25:56;;;;;;;6.03;2.83;;;;;;;25.72;65.01;100952.91;4992593;28;20046;-77
2022/08/30 03:28:24;;;;;;;3.88;2.97;;;;;;;25.74;64.95;100954.16;4992730;28;20057;-77
2022/08/30 03:30:52;;;;;;;3.10;2.78;;;;;;;25.81;65.16;100949.84;4992796;28;20043;-76
2022/08/30 03:33:20;;;;;;;3.03;2.83;;;;;;;25.99;65.20;100955.72;4993178;28;20394;-77
2022/08/30 03:35:48;;;;;;;3.15;2.85;;;;;;;26.03;64.67;100953.78;4992542;28;20042;-77
2022/08/30 03:38:16;;;;;;;3.30;2.92;;;;;;;25.98;65.56;100954.94;4992803;28;20054;-77
2022/08/30 03:40:44;;;;;;;3.97;3.15;;;;;;;26.02;66.11;100954.97;4992788;28;20062;-77
2022/08/30 03:43:13;;;;;;;4.85;3.22;;;;;;;25.98;66.01;100963.34;5000093;28;20042;-77
2022/08/30 03:45:43;;;;;;;6.30;3.33;;;;;;;26.06;66.30;100960.63;5012986;28;20041;-77
2022/08/30 03:48:11;;;;;;;5.25;3.63;;;;;;;26.06;66.38;100964.25;5012420;28;20045;-77
2022/08/30 03:50:39;;;;;;;3.78;3.40;;;;;;;25.98;67.31;100973.72;5012553;28;20034;-76
2022/08/30 03:53:07;;;;;;;6.93;4.05;;;;;;;26.12;67.93;100975.94;5012271;28;20053;-76
2022/08/30 03:55:35;;;;;;;4.60;3.50;;;;;;;26.22;67.32;100980.91;5010044;28;20098;-76
2022/08/30 03:58:03;;;;;;;4.88;4.30;;;;;;;26.15;68.35;100986.41;5001113;28;20050;-76
2022/08/30 04:00:31;;;;;;;4.50;3.92;;;;;;;26.16;68.22;100986.03;4994742;28;20073;-76
2022/08/30 04:02:59;;;;;;;5.72;4.47;;;;;;;26.26;68.33;100983.78;5010058;28;20045;-76
2022/08/30 04:05:27;;;;;;;7.22;4.72;;;;;;;26.29;68.41;100988.63;5012086;28;20050;-76
2022/08/30 04:07:55;;;;;;;6.18;4.35;;;;;;;26.39;68.29;100987.19;5012590;28;20034;-76
2022/08/30 04:10:23;;;;;;;8.80;4.43;;;;;;;26.35;68.18;100992.75;5012066;28;20061;-78
2022/08/30 04:12:51;;;;;;;7.45;4.10;;;;;;;26.43;66.64;100993.63;5012002;28;20044;-78
2022/08/30 04:15:19;;;;;;;6.95;4.43;;;;;;;26.42;65.80;100992.03;5016391;28;20061;-78
2022/08/30 04:17:48;;;;;;;5.38;3.63;;;;;;;26.43;65.52;100990.84;5011963;28;20076;-78
2022/08/30 04:20:16;;;;;;;4.20;3.63;;;;;;;26.47;65.04;100988.06;5012381;28;20049;-78
2022/08/30 04:22:44;;;;;;;4.90;3.70;;;;;;;26.35;65.33;100986.31;5012119;28;20053;-78
2022/08/30 04:25:13;;;;;;;6.25;3.97;;;;;;;26.36;65.04;100968.28;5008326;28;20058;-78
2022/08/30 04:27:44;;;;;;;5.60;3.80;;;;;;;26.37;66.00;100967.09;5011863;28;20056;-78
2022/08/30 04:30:14;;;;;;;4.60;3.83;;;;;;;26.30;65.01;100963.00;5011857;28;20053;-78
2022/08/30 04:32:43;;;;;;;4.68;3.10;;;;;;;26.28;62.79;100965.41;4997649;28;20050;-77
2022/08/30 04:35:12;;;;;;;3.47;3.03;;;;;;;26.39;63.80;100973.16;4992151;28;20465;-77
2022/08/30 04:37:39;;;;;;;3.28;2.95;;;;;;;26.41;63.67;100979.19;4995302;28;20374;-77
2022/08/30 04:40:08;;;;;;;3.72;2.90;;;;;;;26.23;63.82;100976.94;4992699;28;20374;-77
2022/08/30 04:42:37;;;;;;;4.32;3.83;;;;;;;26.25;64.00;100982.97;5002305;28;20377;-77
2022/08/30 04:45:09;;;;;;;6.30;2.75;;;;;;;26.17;64.94;100972.81;5012132;28;20069;-77
2022/08/30 04:47:38;;;;;;;3.58;3.20;;;;;;;26.19;64.39;100987.25;5012274;28;20060;-77
2022/08/30 04:50:08;;;;;;;3.08;2.78;;;;;;;26.20;63.74;100985.28;5008256;28;20053;-75
2022/08/30 04:52:36;;;;;;;3.15;2.72;;;;;;;26.10;63.19;100986.75;4987004;28;20409;-77
2022/08/30 04:55:05;;;;;;;4.60;2.65;;;;;;;26.19;64.21;100987.25;4990202;28;20050;-80
2022/08/30 04:57:33;;;;;;;5.20;2.75;;;;;;;26.73;62.37;100994.84;4965393;28;20046;-80
2022/08/30 05:00:04;;;;;;;3.78;2.97;;;;;;;26.93;60.52;101004.72;4971471;28;20043;-80
2022/08/30 05:02:32;;;;;;;3.50;2.40;;;;;;;26.84;60.50;100999.38;4959444;28;20058;-78
2022/08/30 05:07:49;;;;;;;4.05;3.17;;;;;;;27.30;59.50;101000.31;4962841;28;20050;-80
2022/08/30 05:10:18;;;;;;;2.38;2.17;;;;;;;27.32;59.95;101009.16;4977702;28;20042;-80
2022/08/30 05:12:46;;;;;;;5.38;3.08;;;;;;;27.20;61.07;101009.44;4990998;28;20049;-81
2022/08/30 05:15:14;;;;;;;5.78;3.05;;;;;;;27.43;60.87;100997.22;4955123;28;20050;-81
2022/08/30 05:17:42;;;;;;;3.55;3.10;;;;;;;27.46;60.98;101002.88;4974521;28;20397;-80
2022/08/30 05:20:11;;;;;;;4.80;3.22;;;;;;;27.32;61.19;101003.53;4961189;28;20051;-80
2022/08/30 05:22:48;;;;;;;3.88;3.20;;;;;;;27.27;62.30;101000.28;4976976;28;20046;-79
2022/08/30 05:25:25;;;;;;;4.43;3.08;;;;;;;27.37;61.41;101002.41;4977749;28;20401;-80
2022/08/30 05:27:54;;;;;;;7.60;3.58;;;;;;;27.31;62.16;101004.75;4974652;28;20051;-80
2022/08/30 05:30:24;;;;;;;5.00;3.58;;;;;;;27.27;62.02;101001.06;4956837;28;20485;-79
2022/08/30 05:32:56;;;;;;;3.47;3.17;;;;;;;27.32;61.74;101003.53;4950960;28;20042;-80
2022/08/30 05:35:25;;;;;;;4.03;3.42;;;;;;;27.17;62.89;101008.19;4959490;28;20050;-80
2022/08/30 05:37:54;;;;;;;6.45;3.53;;;;;;;27.20;62.51;101001.00;4973061;28;20038;-80
2022/08/30 05:40:22;;;;;;;4.85;3.90;;;;;;;27.15;63.15;101019.03;4976817;28;20069;-79
2022/08/30 05:42:51;;;;;;;4.03;3.58;;;;;;;27.10;63.54;101014.56;4976117;28;20050;-79
2022/08/30 05:45:19;;;;;;;3.60;3.30;;;;;;;27.23;63.71;101017.09;4974371;28;20061;-78
2022/08/30 05:47:47;;;;;;;5.13;3.50;;;;;;;27.34;63.48;101009.59;4966389;28;20050;-80
2022/08/30 05:50:15;;;;;;;3.72;3.03;;;;;;;27.40;62.16;101006.41;4958647;28;20049;-80
2022/08/30 05:52:44;;;;;;;4.30;3.30;;;;;;;27.41;61.90;101002.44;4952005;28;20066;-80
2022/08/30 05:55:12;;;;;;;2.97;2.70;;;;;;;27.39;61.16;101002.81;4967891;28;20054;-80
2022/08/30 05:57:40;;;;;;;3.47;2.90;;;;;;;27.35;61.36;101001.97;4969104;28;20402;-80
2022/08/30 06:00:12;;;;;;;5.25;3.20;;;;;;;27.20;62.16;101013.06;4965014;28;20051;-80
2022/08/30 06:02:41;;;;;;;4.82;3.20;;;;;;;27.24;62.81;101019.50;4970234;28;20059;-80
2022/08/30 06:05:10;;;;;;;4.97;3.50;;;;;;;27.56;61.57;101015.41;4958678;28;20382;-80
2022/08/30 06:07:42;;;;;;;7.05;4.18;;;;;;;27.55;61.76;101033.47;4962125;28;20043;-80
2022/08/30 06:10:11;;;;;;;5.10;4.20;;;;;;;27.52;62.67;101027.81;5007618;28;20501;-80
2022/08/30 06:12:39;;;;;;;8.77;4.30;;;;;;;27.58;62.00;101032.75;4985800;28;20061;-80
2022/08/30 06:15:07;;;;;;;6.88;3.92;;;;;;;27.54;61.85;101040.28;4993483;28;20047;-80
2022/08/30 06:17:38;;;;;;;4.18;3.78;;;;;;;27.77;61.25;101044.94;4994700;28;20046;-80
2022/08/30 06:20:07;;;;;;;5.47;3.60;;;;;;;28.05;60.21;101043.56;4993408;28;20056;-80
2022/08/30 06:22:35;;;;;;;4.65;3.97;;;;;;;28.04;59.61;101031.50;4994067;28;20046;-80
2022/08/30 06:25:04;;;;;;;6.57;3.40;;;;;;;27.93;60.00;101044.69;4993306;28;20417;-80
2022/08/30 06:27:32;;;;;;;7.10;4.05;;;;;;;27.97;59.74;101036.28;4993876;28;20042;-80
2022/08/30 06:30:07;;;;;;;5.78;3.85;;;;;;;28.15;60.20;101031.59;4987012;28;20054;-80
2022/08/30 06:32:35;;;;;;;5.00;3.38;;;;;;;28.15;59.83;101025.94;4992971;28;20062;-80
2022/08/30 06:35:05;;;;;;;4.55;3.67;;;;;;;28.25;59.59;101018.03;4992947;28;20687;-80
2022/08/30 06:37:36;;;;;;;5.00;3.17;;;;;;;28.21;59.46;101006.72;4989358;28;20046;-80
2022/08/30 06:40:04;;;;;;;4.65;3.67;;;;;;;28.38;59.29;101007.22;4985244;28;20047;-80
2022/08/30 06:42:33;;;;;;;4.50;3.50;;;;;;;28.43;58.54;101007.69;4987117;28;20050;-80
2022/08/30 06:45:03;;;;;;;3.22;2.47;;;;;;;28.45;58.57;101004.47;4988557;28;20043;-80
2022/08/30 06:47:39;;;;;;;5.15;3.25;;;;;;;28.54;58.40;101006.94;4993340;28;20477;-81
2022/08/30 06:50:08;;;;;;;4.60;3.75;;;;;;;28.70;57.82;101009.41;4993636;28;20046;-80
2022/08/30 06:52:41;;;;;;;3.80;2.85;;;;;;;28.77;57.50;101009.44;4990591;28;20057;-80
2022/08/30 06:55:11;;;;;;;6.07;4.05;;;;;;;28.86;57.33;101005.44;4986683;28;20517;-80
2022/08/30 06:57:39;;;;;;;3.88;3.42;;;;;;;28.81;57.42;101009.44;4984371;28;20057;-79
2022/08/30 07:00:10;;;;;;;4.85;3.20;;;;;;;28.98;57.08;101019.19;4988721;28;20054;-79
2022/08/30 07:02:38;;;;;;;3.53;3.10;;;;;;;28.76;57.75;101015.44;4989403;28;20038;-80
2022/08/30 07:05:07;;;;;;;4.53;2.88;;;;;;;28.83;57.76;101021.94;4991987;28;20050;-80
2022/08/30 07:07:35;;;;;;;3.80;3.40;;;;;;;29.17;57.14;101017.25;4993603;28;20405;-80
2022/08/30 07:10:05;;;;;;;4.75;2.60;;;;;;;29.27;56.45;101015.66;4993414;28;20535;-79
2022/08/30 07:12:34;;;;;;;3.88;3.30;;;;;;;29.19;56.77;101006.38;4991065;28;20050;-79
2022/08/30 07:15:04;;;;;;;7.15;3.00;;;;;;;29.17;56.98;101015.22;4990958;28;20038;-79
2022/08/30 07:20:20;;;;;;;3.65;3.30;;;;;;;29.14;56.94;101021.66;4993411;28;20672;-78
2022/08/30 07:22:48;;;;;;;4.60;3.35;;;;;;;29.12;56.36;101020.44;4987143;28;20046;-83
2022/08/30 07:25:16;;;;;;;4.10;3.15;;;;;;;29.07;57.07;101021.63;4988539;28;20054;-77
2022/08/30 07:27:46;;;;;;;5.00;3.88;;;;;;;29.09;57.05;101016.41;4993141;28;20046;-77
2022/08/30 07:30:14;;;;;;;7.90;3.67;;;;;;;29.04;56.46;101012.00;4992784;28;20512;-77
2022/08/30 07:32:42;;;;;;;6.95;3.80;;;;;;;28.98;56.64;101016.38;4992879;28;20058;-77
2022/08/30 07:35:10;;;;;;;4.88;3.70;;;;;;;29.04;56.52;101017.63;4992912;28;20508;-77
2022/08/30 07:37:38;;;;;;;8.57;3.45;;;;;;;29.15;55.50;101020.47;4993020;28;20378;-76
2022/08/30 07:40:06;;;;;;;6.05;3.60;;;;;;;29.41;55.51;101029.75;4990949;28;20854;-77
2022/08/30 07:42:34;;;;;;;4.32;3.20;;;;;;;29.45;55.03;101022.13;4992962;28;20485;-77
2022/08/30 07:45:03;;;;;;;5.43;2.88;;;;;;;29.58;53.46;101021.75;4984278;28;20042;-77
2022/08/30 07:47:31;;;;;;;4.50;2.90;;;;;;;29.65;53.55;101018.94;4992176;28;20393;-77
2022/08/30 07:49:59;;;;;;;3.08;2.60;;;;;;;29.56;53.10;101019.34;4995890;28;20585;-77
2022/08/30 07:52:27;;;;;;;3.20;2.88;;;;;;;29.61;53.48;101023.75;4984667;28;20046;-78
2022/08/30 07:54:59;;;;;;;4.28;3.10;;;;;;;29.71;53.21;101031.44;4990366;28;20057;-78
2022/08/30 07:57:30;;;;;;;4.00;2.88;;;;;;;29.49;52.52;101031.44;4992909;28;20047;-78
2022/08/30 07:59:58;;;;;;;5.15;3.17;;;;;;;29.49;53.24;101022.97;4988886;28;20050;-79
2022/08/30 08:02:27;;;;;;;2.50;2.30;;;;;;;29.44;52.35;101020.53;4982969;28;20054;-78
2022/08/30 08:04:55;;;;;;;5.68;2.63;;;;;;;29.72;52.79;101026.59;4992901;28;20045;-78
2022/08/30 08:07:23;;;;;;;3.83;2.88;;;;;;;29.88;51.82;101040.31;4992625;28;20493;-77
2022/08/30 08:09:50;;;;;;;4.95;2.67;;;;;;;29.70;50.34;101034.66;4990783;28;20053;-77
2022/08/30 08:12:18;;;;;;;2.42;2.22;;;;;;;29.70;49.70;101037.47;4992302;28;20374;-78
2022/08/30 08:14:46;;;;;;;2.72;2.53;;;;;;;29.64;48.51;101031.44;4990704;28;20049;-77
2022/08/30 08:17:14;;;;;;;3.88;2.08;;;;;;;29.82;48.68;101034.28;4992295;28;20042;-77
2022/08/30 08:19:42;;;;;;;2.20;2.00;;;;;;;29.93;47.16;101031.44;4992480;28;20053;-77
2022/08/30 08:22:10;;;;;;;2.85;2.10;;;;;;;30.00;47.79;101037.06;4990770;28;20054;-77
2022/08/30 08:24:57;;;;;;;3.07;2.43;;;;;;;30.10;48.49;101038.28;4984086;28;20501;-77
2022/08/30 08:27:27;;;;;;;2.38;2.05;;;;;;;30.19;47.85;101031.44;4992342;28;20612;-77
2022/08/30 08:29:55;;;;;;;2.97;2.42;;;;;;;30.14;47.50;101027.00;4982652;28;20057;-78
2022/08/30 08:32:23;;;;;;;3.38;2.58;;;;;;;30.17;48.21;101029.81;4991455;28;20046;-77
2022/08/30 08:34:51;;;;;;;4.07;2.45;;;;;;;30.07;48.06;101024.97;4991079;28;20050;-76
2022/08/30 08:37:20;;;;;;;3.40;2.40;;;;;;;29.96;45.75;101024.97;4991979;28;20477;-77
2022/08/30 08:39:54;;;;;;;4.45;2.65;;;;;;;30.12;46.75;101020.97;4991978;28;20049;-77
2022/08/30 08:42:28;;;;;;;3.03;2.08;;;;;;;30.07;46.77;101024.97;4991160;28;20042;-75
2022/08/30 08:45:07;;;;;;;2.50;2.22;;;;;;;30.24;45.52;101033.88;4994911;28;20093;-77
2022/08/30 08:48:00;;;;;;;2.33;1.98;;;;;;;30.08;44.46;101025.78;4993368;28;20042;-77
2022/08/30 08:50:31;;;;;;;2.47;2.13;;;;;;;29.87;45.49;101028.19;4989788;28;20039;-76
2022/08/30 08:53:34;;;;;;;2.47;2.28;;;;;;;30.17;45.68;101029.03;4979169;28;20482;-77
2022/08/30 08:56:18;;;;;;;2.50;2.30;;;;;;;30.33;45.87;101030.59;4995058;28;20046;-75
2022/08/30 08:58:50;;;;;;;3.20;1.92;;;;;;;30.33;45.14;101030.59;4991785;28;20063;-79
2022/08/30 09:01:22;;;;;;;2.35;2.10;;;;;;;30.25;45.34;101036.25;4986948;28;20046;-78
2022/08/30 09:03:50;;;;;;;2.95;1.92;;;;;;;30.22;45.35;101030.63;4987300;28;20046;-79
2022/08/30 09:06:22;;;;;;;3.40;2.42;;;;;;;30.26;46.11;101031.44;5000474;28;20045;-82
2022/08/30 09:08:50;;;;;;;2.25;2.05;;;;;;;30.49;46.26;101030.97;5001491;28;20497;-77
2022/08/30 09:11:26;;;;;;;2.22;2.03;;;;;;;30.53;45.13;101039.41;5006784;28;20049;-82
2022/08/30 09:13:54;;;;;;;3.72;2.33;;;;;;;30.75;45.29;101039.38;4992912;28;20505;-79
2022/08/30 09:16:45;;;;;;;4.80;2.38;;;;;;;30.61;45.25;101040.19;4990800;28;20053;-78
2022/08/30 09:19:31;;;;;;;2.90;2.40;;;;;;;30.84;45.22;101036.94;4990811;28;20375;-76
2022/08/30 09:22:13;;;;;;;3.80;2.30;;;;;;;30.83;44.78;101036.13;4988207;28;20054;-78
2022/08/30 09:24:44;;;;;;;2.72;2.30;;;;;;;30.85;44.26;101044.19;4994390;28;20050;-79
2022/08/30 09:27:24;;;;;;;2.20;2.00;;;;;;;31.03;44.57;101041.25;4993955;28;20038;-79
2022/08/30 09:30:18;;;;;;;2.65;2.45;;;;;;;31.10;44.44;101038.41;4993816;28;20456;-79
2022/08/30 09:33:01;;;;;;;3.60;2.70;;;;;;;31.05;43.87;101036.03;4992492;28;20058;-77
2022/08/30 09:35:42;;;;;;;2.83;2.30;;;;;;;30.94;43.68;101032.44;4987560;28;20038;-78
2022/08/30 09:38:22;;;;;;;2.78;2.55;;;;;;;30.93;45.03;101039.31;4993350;28;20038;-78
2022/08/30 09:40:54;;;;;;;3.58;2.47;;;;;;;30.93;45.02;101039.31;4987548;28;20050;-79
2022/08/30 09:43:32;;;;;;;4.43;2.88;;;;;;;30.96;44.85;101039.28;4988774;28;20042;-79
2022/08/30 09:46:30;;;;;;;3.00;2.70;;;;;;;31.26;45.57;101039.94;4987688;28;20046;-81
2022/08/30 09:48:59;;;;;;;3.90;2.42;;;;;;;31.08;44.92;101045.69;4983212;28;20047;-78
2022/08/30 09:51:33;;;;;;;2.90;2.63;;;;;;;30.97;45.81;101035.25;4993519;28;20043;-78
2022/08/30 09:54:22;;;;;;;3.08;2.78;;;;;;;30.88;45.35;101045.38;4992002;28;20404;-79
2022/08/30 09:57:04;;;;;;;2.95;2.60;;;;;;;30.80;46.14;101042.56;4988271;28;20041;-77
2022/08/30 09:59:56;;;;;;;2.92;2.72;;;;;;;30.90;47.06;101048.59;4990415;28;20108;-76
2022/08/30 10:02:45;;;;;;;5.53;3.15;;;;;;;30.98;46.40;101047.34;4993132;28;20042;-76
2022/08/30 10:05:24;;;;;;;4.65;2.40;;;;;;;30.89;45.72;101042.13;4991040;28;20065;-77
2022/08/30 10:08:13;;;;;;;2.60;2.40;;;;;;;30.92;45.82;101040.50;4990904;28;20049;-77
2022/08/30 10:11:12;;;;;;;4.00;2.55;;;;;;;31.09;45.44;101050.13;4991920;28;20061;-77
2022/08/30 10:14:03;;;;;;;3.15;2.70;;;;;;;30.92;45.58;101046.16;5004030;28;20051;-77
2022/08/30 10:16:42;;;;;;;2.63;2.42;;;;;;;30.84;45.23;101043.38;4993253;28;20046;-77
2022/08/30 10:19:28;;;;;;;4.53;2.42;;;;;;;31.13;44.94;101047.28;4991955;28;20057;-77
2022/08/30 10:22:12;;;;;;;2.17;2.08;;;;;;;31.06;44.71;101046.09;4988933;28;20042;-77
2022/08/30 10:24:53;;;;;;;2.88;2.67;;;;;;;31.45;44.63;101035.81;4988359;28;20041;-77
2022/08/30 10:27:37;;;;;;;3.50;2.95;;;;;;;31.70;43.63;101034.81;4998002;28;20038;-78
2022/08/30 10:30:09;;;;;;;4.25;2.47;;;;;;;31.21;43.78;101029.06;4992739;28;20042;-76
2022/08/30 10:32:59;;;;;;;2.80;2.60;;;;;;;31.40;44.99;101033.41;4991147;28;20047;-76
2022/08/30 10:35:31;;;;;;;3.90;2.72;;;;;;;31.19;43.87;101029.50;4996738;28;20050;-76
2022/08/30 10:38:15;;;;;;;3.40;2.53;;;;;;;31.59;43.67;101017.94;4994877;28;20071;-77
2022/08/30 10:43:37;;;;;;;2.60;2.30;;;;;;;31.64;43.63;101025.97;4986135;28;20035;-77
2022/08/30 10:46:15;;;;;;;2.83;2.30;;;;;;;31.32;43.66;101020.56;4993348;28;20046;-77
2022/08/30 10:48:44;;;;;;;3.03;2.53;;;;;;;31.31;43.53;101024.56;4985704;28;20042;-76
2022/08/30 10:51:23;;;;;;;4.63;2.88;;;;;;;31.24;44.18;101023.38;4989082;28;20043;-75
2022/08/30 10:54:29;;;;;;;2.88;2.53;;;;;;;31.26;43.51;101025.00;4992809;28;20493;-77
2022/08/30 10:56:58;;;;;;;3.20;2.90;;;;;;;31.34;43.43;101030.22;4987193;28;20408;-76
2022/08/30 10:59:27;;;;;;;3.00;2.33;;;;;;;31.33;43.76;101014.47;4989083;28;20504;-76
2022/08/30 11:02:24;;;;;;;3.90;2.88;;;;;;;31.66;43.01;101019.09;4991510;28;20046;-76
2022/08/30 11:05:35;;;;;;;3.13;2.78;;;;;;;31.89;42.34;101007.19;4979110;28;20062;-75
2022/08/30 11:08:50;;;;;;;2.88;2.60;;;;;;;32.29;42.71;101001.13;4984822;28;20050;-76
2022/08/30 11:11:40;;;;;;;3.38;2.83;;;;;;;32.48;41.46;100996.88;4990284;28;20050;-77
2022/08/30 11:14:13;;;;;;;2.80;2.35;;;;;;;32.65;40.39;100997.88;4987209;28;20058;-76
2022/08/30 11:16:50;;;;;;;2.90;2.47;;;;;;;32.52;40.27;100985.50;4985934;28;20042;-76
2022/08/30 11:19:23;;;;;;;2.50;2.30;;;;;;;32.31;41.16;100982.47;4990269;28;20046;-77
2022/08/30 11:22:13;;;;;;;4.75;2.67;;;;;;;32.06;41.64;100982.78;4989719;28;20050;-76
2022/08/30 11:25:02;;;;;;;5.13;2.58;;;;;;;31.85;41.87;100976.09;4990272;28;20081;-76
2022/08/30 11:27:42;;;;;;;2.90;2.63;;;;;;;31.74;42.20;100976.19;4988593;28;20441;-76
2022/08/30 11:30:26;;;;;;;3.72;2.70;;;;;;;31.70;41.17;100977.41;4990650;28;20034;-75
2022/08/30 11:33:02;;;;;;;3.22;2.22;;;;;;;31.89;42.11;100962.72;5004730;28;20058;-75
2022/08/30 11:35:48;;;;;;;4.20;2.40;;;;;;;32.12;41.98;100958.44;4989983;28;20509;-77
2022/08/30 11:38:24;;;;;;;3.08;2.60;;;;;;;32.11;41.49;100951.16;4990763;28;20058;-77
2022/08/30 11:40:56;;;;;;;2.67;2.15;;;;;;;32.16;41.55;100953.53;4990976;28;20481;-76
2022/08/30 11:43:44;;;;;;;3.75;2.42;;;;;;;32.22;41.91;100953.88;4987719;28;20039;-76
2022/08/30 11:46:15;;;;;;;4.07;2.67;;;;;;;32.35;41.25;100937.13;4986628;28;20061;-76
2022/08/30 11:48:51;;;;;;;4.78;2.58;;;;;;;32.38;40.67;100933.47;4989036;28;20038;-76
2022/08/30 11:51:57;;;;;;;2.70;2.50;;;;;;;32.49;41.37;100941.84;4991230;28;20046;-77
2022/08/30 11:55:11;;;;;;;2.50;2.30;;;;;;;32.35;41.90;100922.97;4991270;28;20060;-76
2022/08/30 11:58:08;;;;;;;2.72;2.50;;;;;;;32.21;40.56;100921.16;4989178;28;20711;-76